Main page
METAR-TAF:

METAR-TAF

Airports :

Le Touquet – Côte d'Opale Airport

Le Touquet, France

latitude: 50-30-53N, longitude: 001-37-39E, elevation: 6 m

Current weather observation

The report was made 11 minutes ago, at 20:00 UTC
Wind 2 kt from the South/Southwest
Temperature 5°C
Humidity 87%
Pressure 1037 hPa
Visibility 10 km or more
Overcast at a height of 1900 ft

METAR: LFAT 222000Z AUTO 21002KT 9999 OVC019 05/03 Q1037

Time: 21:11 (20:11 UTC)

Forecast

The report was made 6 hours and 11 minutes ago, at 14:00 UTC
Forecast valid from 22 at 15 UTC to 22 at 24 UTC
Wind 3 kt from variable directions
Visibility 10 km or more
Overcast at a height of 1200 ft
Probability 40% :
Temporary
from 22 at 15 UTC to 22 at 24 UTC
Broken clouds at a height of 1700 ft

TAF: LFAT 221400Z 2215/2224 VRB03KT 9999 OVC012 PROB40 TEMPO 2215/2224 BKN017

Weather observations and forecasts of more than 4000 airports (METAR and TAF reports).

The available stations are represented by yellow and red dots on the map.

Hover mouse over dot to see the name of the station.

Then click to see weather observations and forecasts.

To change the map : click on the green buttons with a black cross to zoom in, on the green button with a dash to zoom out, or on the green arrows for adjacent maps.


METAR-TAF: